createdAt,value
2018-09-19T00:00:07.936Z,18.42
2018-09-19T00:02:36.136Z,18.44
2018-09-19T00:05:04.303Z,18.49
2018-09-19T00:07:32.459Z,18.41
2018-09-19T00:10:00.706Z,18.49
2018-09-19T00:12:29.095Z,18.47
2018-09-19T00:14:57.372Z,18.42
2018-09-19T00:17:25.645Z,18.34
2018-09-19T00:19:53.960Z,18.29
2018-09-19T00:22:22.097Z,18.34
2018-09-19T00:24:50.309Z,18.17
2018-09-19T00:27:18.482Z,18.18
2018-09-19T00:29:46.623Z,18.18
2018-09-19T00:32:14.818Z,18.20
2018-09-19T00:34:43.017Z,18.20
2018-09-19T00:37:11.254Z,18.22
2018-09-19T00:39:39.466Z,18.35
2018-09-19T00:42:07.834Z,18.26
2018-09-19T00:44:36.083Z,18.28
2018-09-19T00:47:04.252Z,18.29
2018-09-19T00:49:32.467Z,18.33
2018-09-19T00:52:00.666Z,18.28
2018-09-19T00:54:29.096Z,18.25
2018-09-19T00:56:57.295Z,18.34
2018-09-19T00:59:25.439Z,18.29
2018-09-19T01:01:53.723Z,18.33
2018-09-19T01:04:21.900Z,18.18
2018-09-19T01:06:50.355Z,18.16
2018-09-19T01:09:18.727Z,18.15
2018-09-19T01:11:46.842Z,18.22
2018-09-19T01:14:15.230Z,18.16
2018-09-19T01:16:43.423Z,18.19
2018-09-19T01:19:11.624Z,18.23
2018-09-19T01:21:39.809Z,18.23
2018-09-19T01:24:07.982Z,18.09
2018-09-19T01:26:36.216Z,18.18
2018-09-19T01:29:04.407Z,18.32
2018-09-19T01:31:39.428Z,18.53
2018-09-19T01:34:07.675Z,18.91
2018-09-19T01:36:35.848Z,19.51
2018-09-19T01:39:05.039Z,19.75
2018-09-19T01:41:33.198Z,19.89
2018-09-19T01:44:01.382Z,19.94
2018-09-19T01:46:30.137Z,19.98
2018-09-19T01:48:58.320Z,20.05
2018-09-19T01:51:26.440Z,19.93
2018-09-19T01:53:54.777Z,19.94
2018-09-19T01:56:22.943Z,19.96
2018-09-19T01:58:51.118Z,19.97
2018-09-19T02:01:19.326Z,19.88
2018-09-19T02:03:54.149Z,19.70
2018-09-19T02:06:22.295Z,19.72
2018-09-19T02:08:50.619Z,19.69
2018-09-19T02:11:18.861Z,19.64
2018-09-19T02:13:47.075Z,19.69
2018-09-19T02:16:15.543Z,19.65
2018-09-19T02:18:43.702Z,19.57
2018-09-19T02:21:12.463Z,19.62
2018-09-19T02:23:40.664Z,19.46
2018-09-19T02:26:08.869Z,19.47
2018-09-19T02:28:37.185Z,19.45
2018-09-19T02:31:05.415Z,19.42
2018-09-19T02:33:33.599Z,19.31
2018-09-19T02:36:01.780Z,19.31
2018-09-19T02:38:30.255Z,19.31
2018-09-19T02:40:59.204Z,19.24
2018-09-19T02:43:27.469Z,19.28
2018-09-19T02:45:55.777Z,19.24
2018-09-19T02:48:23.998Z,19.26
2018-09-19T02:50:52.189Z,19.14
2018-09-19T02:53:20.508Z,19.13
2018-09-19T02:55:48.747Z,19.11
2018-09-19T02:58:16.924Z,19.05
2018-09-19T03:00:45.253Z,19.04
2018-09-19T03:03:13.443Z,18.95
2018-09-19T03:05:41.707Z,19.00
2018-09-19T03:08:12.997Z,19.00
2018-09-19T03:10:41.180Z,18.92
2018-09-19T03:13:09.341Z,18.76
2018-09-19T03:15:37.580Z,18.74
2018-09-19T03:18:05.855Z,18.84
2018-09-19T03:20:34.133Z,18.75
2018-09-19T03:23:02.343Z,18.66
2018-09-19T03:25:30.533Z,18.87
2018-09-19T03:27:58.880Z,18.89
2018-09-19T03:30:27.103Z,18.85
2018-09-19T03:32:55.300Z,18.67
2018-09-19T03:35:23.668Z,18.58
2018-09-19T03:37:52.059Z,18.65
2018-09-19T03:40:20.301Z,18.48
2018-09-19T03:42:48.487Z,18.51
2018-09-19T03:45:16.683Z,18.61
2018-09-19T03:47:44.925Z,18.70
2018-09-19T03:50:13.208Z,18.51
2018-09-19T03:52:43.064Z,18.56
2018-09-19T03:55:11.219Z,18.50
2018-09-19T03:57:39.415Z,18.50
2018-09-19T04:00:07.617Z,18.49
2018-09-19T04:02:35.955Z,18.48
2018-09-19T04:05:04.103Z,18.41
2018-09-19T04:07:32.276Z,18.28
2018-09-19T04:10:00.444Z,18.41
2018-09-19T04:12:28.597Z,18.34
2018-09-19T04:14:56.825Z,18.53
2018-09-19T04:17:25.071Z,18.45
2018-09-19T04:19:53.236Z,18.39
2018-09-19T04:22:21.420Z,18.38
2018-09-19T04:24:49.668Z,18.42
2018-09-19T04:27:17.916Z,18.37
2018-09-19T04:29:46.110Z,18.48
2018-09-19T04:32:14.360Z,18.48
2018-09-19T04:34:42.466Z,18.36
2018-09-19T04:37:10.906Z,18.26
2018-09-19T04:39:39.061Z,18.35
2018-09-19T04:42:07.601Z,18.37
2018-09-19T04:44:35.775Z,18.38
2018-09-19T04:47:03.886Z,18.23
2018-09-19T04:49:32.150Z,18.12
2018-09-19T04:52:00.399Z,18.13
2018-09-19T04:54:33.693Z,18.21
2018-09-19T04:57:01.890Z,18.09
2018-09-19T04:59:30.171Z,18.08
2018-09-19T05:01:58.407Z,18.13
2018-09-19T05:04:27.311Z,18.08
2018-09-19T05:06:55.584Z,18.15
2018-09-19T05:09:24.210Z,18.15
2018-09-19T05:11:52.447Z,18.15
2018-09-19T05:14:20.694Z,18.17
2018-09-19T05:16:49.963Z,18.19
2018-09-19T05:19:18.332Z,18.46
2018-09-19T05:21:46.543Z,18.24
2018-09-19T05:24:14.801Z,18.23
2018-09-19T05:26:42.996Z,18.53
2018-09-19T05:29:11.269Z,18.38
2018-09-19T05:31:39.584Z,18.30
2018-09-19T05:34:07.741Z,18.35
2018-09-19T05:36:36.063Z,18.41
2018-09-19T05:39:05.586Z,18.42
2018-09-19T05:41:33.842Z,18.46
2018-09-19T05:44:02.089Z,18.48
2018-09-19T05:46:30.359Z,18.61
2018-09-19T05:48:58.673Z,18.72
2018-09-19T05:51:26.981Z,18.84
2018-09-19T05:53:55.144Z,18.91
2018-09-19T05:56:23.301Z,19.08
2018-09-19T05:58:51.688Z,19.11
2018-09-19T06:01:19.881Z,19.19
2018-09-19T06:03:48.157Z,19.29
2018-09-19T06:06:16.369Z,19.33
2018-09-19T06:08:45.633Z,19.45
2018-09-19T06:11:22.811Z,19.53
2018-09-19T06:13:51.767Z,19.84
2018-09-19T06:16:20.042Z,19.86
2018-09-19T06:18:48.345Z,19.96
2018-09-19T06:21:16.517Z,19.84
2018-09-19T06:23:44.754Z,19.89
2018-09-19T06:26:12.999Z,19.92
2018-09-19T06:28:41.244Z,19.88
2018-09-19T06:31:09.471Z,19.95
2018-09-19T06:33:37.691Z,19.95
2018-09-19T06:36:06.019Z,20.02
2018-09-19T06:38:34.226Z,20.17
2018-09-19T06:41:02.620Z,20.26
2018-09-19T06:43:30.823Z,20.20
2018-09-19T06:45:58.990Z,20.25
2018-09-19T06:48:27.259Z,20.32
2018-09-19T06:50:55.431Z,20.32
2018-09-19T06:53:23.675Z,20.34
2018-09-19T06:55:52.093Z,20.52
2018-09-19T06:58:20.674Z,20.55
2018-09-19T07:00:48.814Z,20.51
2018-09-19T07:03:17.227Z,20.24
2018-09-19T07:05:45.446Z,20.30
2018-09-19T07:08:13.656Z,20.40
2018-09-19T07:10:41.867Z,20.59
2018-09-19T07:13:10.060Z,20.59
2018-09-19T07:15:38.242Z,20.72
2018-09-19T07:18:06.383Z,20.91
2018-09-19T07:20:34.619Z,21.00
2018-09-19T07:23:02.791Z,20.98
2018-09-19T07:25:31.136Z,21.15
2018-09-19T07:27:59.393Z,21.32
2018-09-19T07:30:27.614Z,21.28
2018-09-19T07:32:55.817Z,21.00
2018-09-19T07:35:24.393Z,21.07
2018-09-19T07:37:52.692Z,21.21
2018-09-19T07:40:20.928Z,21.25
2018-09-19T07:42:49.036Z,21.44
2018-09-19T07:45:17.300Z,21.51
2018-09-19T07:47:46.183Z,21.81
2018-09-19T07:50:14.379Z,22.01
2018-09-19T07:52:42.621Z,22.16
2018-09-19T07:55:11.089Z,22.29
2018-09-19T07:57:39.199Z,22.31
2018-09-19T08:00:07.489Z,22.50
2018-09-19T08:02:35.769Z,22.56
2018-09-19T08:05:04.029Z,22.49
2018-09-19T08:07:32.235Z,22.49
2018-09-19T08:10:00.730Z,22.31
2018-09-19T08:12:28.926Z,22.35
2018-09-19T08:14:57.205Z,22.61
2018-09-19T08:17:25.438Z,22.59
2018-09-19T08:19:53.586Z,22.63
2018-09-19T08:22:21.746Z,22.69
2018-09-19T08:24:50.140Z,22.73
2018-09-19T08:27:18.319Z,22.72
2018-09-19T08:29:46.499Z,22.59
2018-09-19T08:32:14.659Z,22.62
2018-09-19T08:34:42.983Z,22.55
2018-09-19T08:37:11.188Z,22.73
2018-09-19T08:39:39.435Z,22.64
2018-09-19T08:42:07.736Z,22.69
2018-09-19T08:44:35.940Z,22.79
2018-09-19T08:47:04.189Z,22.74
2018-09-19T08:49:33.037Z,22.83
2018-09-19T08:52:01.875Z,22.77
2018-09-19T08:54:30.180Z,22.87
2018-09-19T08:56:58.533Z,22.68
2018-09-19T08:59:26.721Z,22.81
2018-09-19T09:01:54.900Z,22.88
2018-09-19T09:04:23.069Z,22.92
2018-09-19T09:06:51.282Z,22.95
2018-09-19T09:09:19.466Z,23.01
2018-09-19T09:11:47.639Z,23.08
2018-09-19T09:14:15.938Z,23.22
2018-09-19T09:16:44.291Z,23.26
2018-09-19T09:19:12.568Z,23.25
2018-09-19T09:21:40.745Z,23.20
2018-09-19T09:24:09.023Z,23.31
2018-09-19T09:26:37.272Z,23.40
2018-09-19T09:29:05.485Z,23.44
2018-09-19T09:31:33.860Z,23.39
2018-09-19T09:34:02.648Z,23.40
2018-09-19T09:36:30.873Z,23.49
2018-09-19T09:39:00.234Z,23.58
2018-09-19T09:41:28.448Z,23.42
2018-09-19T09:43:56.694Z,23.50
2018-09-19T09:46:24.901Z,23.57
2018-09-19T09:48:53.089Z,23.65
2018-09-19T09:51:21.512Z,23.80
2018-09-19T09:53:49.738Z,23.87
2018-09-19T09:56:17.976Z,23.92
2018-09-19T09:58:47.524Z,24.00
2018-09-19T10:01:16.516Z,24.05
2018-09-19T10:03:44.851Z,24.18
2018-09-19T10:06:13.135Z,24.17
2018-09-19T10:08:41.343Z,24.36
2018-09-19T10:11:09.503Z,24.38
2018-09-19T10:13:38.289Z,24.37
2018-09-19T10:16:06.646Z,24.38
2018-09-19T10:18:35.027Z,24.40
2018-09-19T10:21:03.229Z,24.44
2018-09-19T10:23:31.472Z,24.56
2018-09-19T10:25:59.668Z,24.54
2018-09-19T10:28:27.861Z,24.59
2018-09-19T10:30:56.156Z,24.65
2018-09-19T10:33:24.457Z,24.70
2018-09-19T10:35:52.688Z,24.87
2018-09-19T10:38:20.853Z,24.96
2018-09-19T10:40:49.037Z,25.04
2018-09-19T10:43:17.340Z,25.02
2018-09-19T10:45:45.557Z,24.93
2018-09-19T10:48:17.826Z,25.04
2018-09-19T10:50:46.772Z,25.08
2018-09-19T10:53:15.100Z,25.07
2018-09-19T10:55:44.148Z,25.12
2018-09-19T10:58:16.190Z,25.04
2018-09-19T11:00:44.598Z,25.12
2018-09-19T11:03:13.055Z,25.16
2018-09-19T11:05:41.424Z,25.03
2018-09-19T11:08:09.632Z,25.12
2018-09-19T11:10:37.911Z,25.20
2018-09-19T11:13:06.233Z,25.20
2018-09-19T11:15:34.636Z,25.29
2018-09-19T11:18:02.794Z,25.41
2018-09-19T11:20:31.566Z,25.43
2018-09-19T11:23:00.124Z,25.48
2018-09-19T11:25:28.344Z,25.44
2018-09-19T11:27:56.572Z,25.60
2018-09-19T11:30:24.886Z,25.57
2018-09-19T11:32:53.085Z,25.57
2018-09-19T11:35:21.278Z,25.67
2018-09-19T11:37:49.462Z,25.63
2018-09-19T11:40:17.870Z,25.81
2018-09-19T11:42:46.259Z,25.88
2018-09-19T11:45:14.590Z,25.97
2018-09-19T11:47:42.920Z,25.83
2018-09-19T11:50:11.152Z,25.95
2018-09-19T11:52:39.272Z,26.13
2018-09-19T11:55:08.051Z,26.26
2018-09-19T11:57:36.268Z,26.35
2018-09-19T12:00:04.725Z,26.35
2018-09-19T12:02:32.974Z,26.27
2018-09-19T12:05:01.169Z,26.29
2018-09-19T12:07:29.638Z,26.42
2018-09-19T12:09:57.914Z,26.63
2018-09-19T12:12:26.354Z,26.58
2018-09-19T12:14:55.296Z,26.58
2018-09-19T12:17:23.612Z,26.57
2018-09-19T12:19:51.975Z,26.54
2018-09-19T12:22:20.110Z,26.58
2018-09-19T12:24:48.343Z,26.61
2018-09-19T12:27:17.144Z,26.73
2018-09-19T12:29:45.422Z,26.93
2018-09-19T12:32:13.613Z,27.00
2018-09-19T12:34:41.911Z,27.10
2018-09-19T12:37:10.089Z,26.96
2018-09-19T12:39:38.341Z,26.92
2018-09-19T12:42:06.704Z,26.76
2018-09-19T12:44:35.137Z,26.75
2018-09-19T12:47:03.451Z,26.71
2018-09-19T12:49:31.836Z,26.79
2018-09-19T12:52:00.492Z,26.82
2018-09-19T12:54:28.734Z,26.82
2018-09-19T12:56:56.962Z,26.85
2018-09-19T12:59:26.287Z,26.84
2018-09-19T13:01:55.102Z,26.87
2018-09-19T13:04:26.802Z,26.98
2018-09-19T13:06:55.254Z,26.96
2018-09-19T13:09:23.515Z,26.94
2018-09-19T13:11:52.029Z,27.00
2018-09-19T13:14:20.178Z,27.08
2018-09-19T13:16:48.388Z,27.03
2018-09-19T13:19:16.629Z,27.08
2018-09-19T13:21:44.838Z,27.27
2018-09-19T13:24:13.934Z,27.11
2018-09-19T13:26:42.174Z,27.13
2018-09-19T13:29:10.703Z,27.16
2018-09-19T13:31:38.893Z,27.23
2018-09-19T13:34:07.259Z,27.22
2018-09-19T13:36:35.428Z,27.19
2018-09-19T13:39:04.228Z,27.15
2018-09-19T13:41:32.441Z,27.16
2018-09-19T13:44:00.871Z,27.20
2018-09-19T13:46:29.199Z,27.22
2018-09-19T13:49:02.111Z,27.14
2018-09-19T13:51:30.508Z,27.19
2018-09-19T13:53:58.747Z,27.23
2018-09-19T13:56:27.052Z,27.33
2018-09-19T13:58:55.378Z,27.33
2018-09-19T14:01:23.736Z,27.65
2018-09-19T14:03:52.067Z,27.74
2018-09-19T14:06:21.188Z,27.52
2018-09-19T14:08:49.608Z,27.45
2018-09-19T14:11:17.806Z,27.75
2018-09-19T14:13:46.080Z,27.63
2018-09-19T14:16:14.370Z,27.75
2018-09-19T14:18:42.741Z,27.75
2018-09-19T14:21:10.924Z,27.72
2018-09-19T14:23:39.185Z,27.63
2018-09-19T14:26:07.616Z,27.59
2018-09-19T14:28:35.834Z,27.55
2018-09-19T14:31:04.056Z,27.65
2018-09-19T14:33:32.498Z,27.56
2018-09-19T14:36:00.800Z,27.61
2018-09-19T14:38:29.105Z,27.61
2018-09-19T14:40:57.389Z,27.51
2018-09-19T14:43:25.833Z,27.48
2018-09-19T14:45:53.991Z,27.48
2018-09-19T14:48:22.330Z,27.56
2018-09-19T14:50:51.721Z,27.67
2018-09-19T14:53:20.115Z,27.60
2018-09-19T14:55:48.563Z,27.57
2018-09-19T14:58:17.063Z,27.57
2018-09-19T15:00:45.317Z,27.43
2018-09-19T15:03:13.577Z,27.34
2018-09-19T15:05:41.893Z,27.36
2018-09-19T15:08:10.287Z,27.25
2018-09-19T15:10:38.501Z,27.23
2018-09-19T15:13:07.232Z,27.14
2018-09-19T15:15:36.267Z,27.35
2018-09-19T15:18:04.642Z,27.52
2018-09-19T15:20:32.988Z,27.51
2018-09-19T15:23:01.286Z,27.50
2018-09-19T15:25:29.681Z,27.40
2018-09-19T15:27:58.005Z,27.22
2018-09-19T15:30:26.181Z,27.19
2018-09-19T15:32:54.451Z,27.09
2018-09-19T15:35:22.692Z,26.99
2018-09-19T15:37:52.086Z,26.99
2018-09-19T15:40:20.644Z,26.88
2018-09-19T15:42:48.828Z,26.85
2018-09-19T15:45:31.124Z,26.94
2018-09-19T15:47:59.476Z,26.86
2018-09-19T15:50:27.975Z,26.81
2018-09-19T15:52:57.079Z,27.05
2018-09-19T15:55:25.529Z,27.06
2018-09-19T15:57:54.060Z,26.90
2018-09-19T16:00:22.315Z,26.80
2018-09-19T16:02:50.571Z,26.80
2018-09-19T16:05:18.777Z,26.88
2018-09-19T16:07:47.581Z,26.76
2018-09-19T16:10:15.793Z,27.07
2018-09-19T16:12:43.957Z,26.86
2018-09-19T16:15:12.297Z,26.89
2018-09-19T16:17:40.591Z,26.85
2018-09-19T16:20:08.813Z,26.74
2018-09-19T16:22:37.096Z,26.71
2018-09-19T16:25:05.317Z,26.62
2018-09-19T16:27:34.375Z,26.53
2018-09-19T16:30:03.648Z,26.40
2018-09-19T16:32:31.918Z,26.31
2018-09-19T16:35:00.415Z,26.36
2018-09-19T16:37:32.791Z,26.27
2018-09-19T16:40:01.087Z,26.11
2018-09-19T16:42:29.379Z,26.07
2018-09-19T16:44:57.660Z,25.94
2018-09-19T16:47:26.227Z,25.77
2018-09-19T16:49:55.408Z,25.69
2018-09-19T16:52:23.993Z,25.69
2018-09-19T16:54:53.661Z,25.59
2018-09-19T16:57:22.076Z,25.55
2018-09-19T16:59:50.304Z,25.42
2018-09-19T17:02:19.392Z,25.31
2018-09-19T17:04:47.644Z,25.24
2018-09-19T17:07:15.921Z,25.18
2018-09-19T17:09:44.378Z,25.10
2018-09-19T17:12:12.874Z,24.96
2018-09-19T17:14:41.172Z,24.93
2018-09-19T17:17:09.471Z,24.84
2018-09-19T17:19:38.001Z,24.84
2018-09-19T17:22:06.522Z,24.78
2018-09-19T17:24:34.945Z,24.67
2018-09-19T17:27:03.503Z,24.62
2018-09-19T17:29:31.873Z,24.52
2018-09-19T17:32:00.128Z,24.50
2018-09-19T17:34:28.447Z,24.44
2018-09-19T17:36:56.653Z,24.41
2018-09-19T17:39:24.960Z,24.39
2018-09-19T17:41:53.311Z,24.38
2018-09-19T17:44:21.553Z,24.33
2018-09-19T17:46:49.970Z,24.24
2018-09-19T17:49:18.295Z,24.24
2018-09-19T17:51:46.625Z,24.36
2018-09-19T17:54:14.940Z,24.30
2018-09-19T17:56:43.229Z,24.27
2018-09-19T17:59:11.538Z,24.22
2018-09-19T18:01:39.778Z,24.34
2018-09-19T18:04:08.041Z,24.17
2018-09-19T18:06:36.384Z,24.09
2018-09-19T18:09:05.449Z,24.23
2018-09-19T18:11:33.681Z,24.28
2018-09-19T18:14:01.937Z,24.31
2018-09-19T18:16:30.303Z,24.19
2018-09-19T18:18:59.501Z,24.00
2018-09-19T18:21:27.747Z,24.15
2018-09-19T18:23:56.055Z,24.02
2018-09-19T18:26:24.294Z,23.91
2018-09-19T18:28:52.562Z,23.90
2018-09-19T18:31:20.792Z,23.97
2018-09-19T18:33:49.174Z,24.04
2018-09-19T18:36:17.474Z,23.97
2018-09-19T18:38:45.767Z,23.97
2018-09-19T18:41:14.559Z,23.87
2018-09-19T18:43:42.839Z,23.78
2018-09-19T18:46:11.134Z,23.71
2018-09-19T18:48:39.343Z,23.83
2018-09-19T18:51:08.598Z,23.81
2018-09-19T18:53:36.913Z,23.70
2018-09-19T18:56:05.444Z,23.58
2018-09-19T18:58:33.732Z,23.62
2018-09-19T19:01:01.998Z,23.47
2018-09-19T19:03:30.654Z,23.52
2018-09-19T19:05:58.892Z,23.60
2018-09-19T19:08:27.383Z,23.57
2018-09-19T19:10:55.657Z,23.57
2018-09-19T19:13:23.951Z,23.78
2018-09-19T19:15:52.952Z,23.81
2018-09-19T19:18:21.887Z,23.77
2018-09-19T19:20:50.203Z,23.60
2018-09-19T19:23:19.616Z,23.55
2018-09-19T19:28:15.173Z,23.66
2018-09-19T19:30:43.610Z,23.52
2018-09-19T19:33:12.000Z,23.34
2018-09-19T19:35:40.487Z,23.41
2018-09-19T19:38:08.878Z,23.26
2018-09-19T19:40:37.409Z,23.35
2018-09-19T19:43:05.905Z,23.28
2018-09-19T19:45:34.537Z,23.33
2018-09-19T19:48:02.870Z,23.34
2018-09-19T19:50:31.522Z,23.31
2018-09-19T19:52:59.904Z,23.33
2018-09-19T19:55:28.281Z,23.39
2018-09-19T19:57:57.341Z,23.21
2018-09-19T20:00:25.930Z,23.36
2018-09-19T20:02:54.204Z,23.21
2018-09-19T20:05:22.529Z,23.24
2018-09-19T20:07:50.812Z,23.21
2018-09-19T20:10:19.254Z,23.10
2018-09-19T20:12:47.514Z,23.09
2018-09-19T20:15:16.197Z,23.00
2018-09-19T20:17:44.615Z,22.93
2018-09-19T20:20:12.999Z,22.86
2018-09-19T20:22:41.313Z,22.75
2018-09-19T20:25:09.619Z,22.69
2018-09-19T20:27:38.040Z,22.80
2018-09-19T20:30:07.068Z,22.86
2018-09-19T20:32:35.426Z,22.74
2018-09-19T20:35:03.679Z,22.69
2018-09-19T20:37:31.987Z,22.68
2018-09-19T20:40:00.942Z,22.85
2018-09-19T20:42:29.245Z,23.03
2018-09-19T20:44:58.454Z,23.00
2018-09-19T20:47:26.904Z,22.94
2018-09-19T20:49:55.432Z,22.75
2018-09-19T20:52:23.741Z,22.72
2018-09-19T20:54:52.035Z,22.79
2018-09-19T20:57:20.439Z,22.73
2018-09-19T20:59:49.013Z,22.71
2018-09-19T21:02:17.261Z,22.79
2018-09-19T21:04:45.592Z,22.73
2018-09-19T21:07:13.837Z,22.73
2018-09-19T21:09:42.093Z,22.50
2018-09-19T21:12:10.322Z,22.47
2018-09-19T21:14:38.617Z,22.55
2018-09-19T21:17:06.861Z,22.67
2018-09-19T21:19:35.117Z,22.67
2018-09-19T21:22:03.413Z,22.43
2018-09-19T21:24:31.498Z,22.43
2018-09-19T21:26:59.665Z,22.29
2018-09-19T21:29:27.891Z,22.21
2018-09-19T21:31:56.071Z,22.30
2018-09-19T21:34:24.548Z,22.15
2018-09-19T21:36:53.046Z,21.99
2018-09-19T21:39:21.285Z,22.02
2018-09-19T21:41:49.527Z,21.90
2018-09-19T21:44:17.701Z,21.90
2018-09-19T21:46:45.868Z,22.03
2018-09-19T21:49:14.083Z,21.93
2018-09-19T21:51:42.273Z,21.80
2018-09-19T21:54:10.444Z,21.78
2018-09-19T21:56:38.661Z,21.78
2018-09-19T21:59:06.854Z,21.78
2018-09-19T22:01:41.728Z,21.74
2018-09-19T22:04:10.571Z,21.67
2018-09-19T22:06:39.058Z,21.59
2018-09-19T22:09:11.436Z,21.64
2018-09-19T22:11:46.048Z,21.62
2018-09-19T22:14:14.853Z,21.60
2018-09-19T22:16:42.996Z,21.68
2018-09-19T22:19:11.282Z,21.58
2018-09-19T22:21:39.498Z,21.52
2018-09-19T22:24:07.817Z,21.48
2018-09-19T22:26:36.455Z,21.60
2018-09-19T22:29:04.708Z,21.55
2018-09-19T22:31:33.147Z,21.41
2018-09-19T22:34:01.530Z,21.39
2018-09-19T22:36:29.792Z,21.31
2018-09-19T22:38:57.988Z,21.38
2018-09-19T22:41:26.320Z,21.39
2018-09-19T22:43:54.522Z,21.30
2018-09-19T22:46:23.018Z,21.26
2018-09-19T22:48:51.268Z,21.33
2018-09-19T22:51:19.440Z,21.38
2018-09-19T22:53:47.714Z,21.53
2018-09-19T22:56:15.976Z,21.47
2018-09-19T22:58:44.152Z,21.33
2018-09-19T23:01:12.406Z,21.32
2018-09-19T23:03:40.649Z,21.57
2018-09-19T23:06:09.189Z,21.55
2018-09-19T23:08:37.362Z,21.48
2018-09-19T23:11:05.638Z,21.35
2018-09-19T23:13:33.814Z,21.31
2018-09-19T23:16:02.002Z,21.22
2018-09-19T23:18:30.158Z,21.03
2018-09-19T23:20:58.333Z,20.90
2018-09-19T23:23:26.614Z,20.85
2018-09-19T23:25:54.780Z,20.84
2018-09-19T23:28:22.956Z,20.76
2018-09-19T23:30:51.438Z,20.79
2018-09-19T23:33:20.169Z,20.77
2018-09-19T23:35:48.338Z,20.77
2018-09-19T23:38:16.448Z,20.77
2018-09-19T23:40:44.824Z,20.79
2018-09-19T23:43:13.081Z,20.85
2018-09-19T23:45:41.309Z,20.81
2018-09-19T23:48:10.040Z,20.86
2018-09-19T23:50:38.317Z,20.80
2018-09-19T23:53:06.525Z,20.83
2018-09-19T23:55:34.873Z,20.73
2018-09-19T23:58:03.093Z,20.77
